sensor_id;sensor_type;location;lat;lon;timestamp;pressure;altitude;pressure_sealevel;temperature;humidity
39999;BME280;25696;42.646;23.368;2022-07-29T00:02:20;94663.75;;;19.47;80.81
39999;BME280;25696;42.646;23.368;2022-07-29T00:04:46;94676.81;;;19.40;81.61
39999;BME280;25696;42.646;23.368;2022-07-29T00:07:11;94686.91;;;19.40;81.63
39999;BME280;25696;42.646;23.368;2022-07-29T00:09:37;94683.34;;;19.39;81.52
39999;BME280;25696;42.646;23.368;2022-07-29T00:12:02;94685.56;;;19.42;81.26
39999;BME280;25696;42.646;23.368;2022-07-29T00:14:28;94691.22;;;19.36;81.77
39999;BME280;25696;42.646;23.368;2022-07-29T00:16:54;94685.03;;;19.45;81.63
39999;BME280;25696;42.646;23.368;2022-07-29T00:19:20;94686.50;;;19.31;82.18
39999;BME280;25696;42.646;23.368;2022-07-29T00:21:45;94698.13;;;19.43;81.60
39999;BME280;25696;42.646;23.368;2022-07-29T00:24:10;94695.78;;;19.52;81.16
39999;BME280;25696;42.646;23.368;2022-07-29T00:26:36;94698.44;;;19.47;81.19
39999;BME280;25696;42.646;23.368;2022-07-29T00:29:03;94693.16;;;19.62;80.65
39999;BME280;25696;42.646;23.368;2022-07-29T00:31:29;94687.50;;;19.68;80.08
39999;BME280;25696;42.646;23.368;2022-07-29T00:33:55;94688.31;;;19.69;80.40
39999;BME280;25696;42.646;23.368;2022-07-29T00:36:21;94687.41;;;19.63;80.64
39999;BME280;25696;42.646;23.368;2022-07-29T00:38:48;94674.97;;;19.72;80.29
39999;BME280;25696;42.646;23.368;2022-07-29T00:41:13;94678.91;;;20.13;79.57
39999;BME280;25696;42.646;23.368;2022-07-29T00:43:39;94691.91;;;20.28;77.96
39999;BME280;25696;42.646;23.368;2022-07-29T00:46:04;94692.00;;;20.38;77.45
39999;BME280;25696;42.646;23.368;2022-07-29T00:48:30;94679.53;;;20.57;76.66
39999;BME280;25696;42.646;23.368;2022-07-29T00:50:57;94693.94;;;20.79;76.48
39999;BME280;25696;42.646;23.368;2022-07-29T00:53:23;94690.72;;;20.87;76.14
39999;BME280;25696;42.646;23.368;2022-07-29T00:55:50;94687.13;;;20.81;75.13
39999;BME280;25696;42.646;23.368;2022-07-29T00:58:16;94697.25;;;20.86;75.09
39999;BME280;25696;42.646;23.368;2022-07-29T01:00:41;94695.63;;;20.85;74.81
39999;BME280;25696;42.646;23.368;2022-07-29T01:03:07;94687.88;;;20.72;75.29
39999;BME280;25696;42.646;23.368;2022-07-29T01:05:34;94684.06;;;20.73;76.02
39999;BME280;25696;42.646;23.368;2022-07-29T01:08:00;94669.66;;;20.51;76.33
39999;BME280;25696;42.646;23.368;2022-07-29T01:10:27;94691.94;;;20.64;76.20
39999;BME280;25696;42.646;23.368;2022-07-29T01:12:57;94679.38;;;20.73;75.89
39999;BME280;25696;42.646;23.368;2022-07-29T01:15:24;94677.81;;;20.82;75.82
39999;BME280;25696;42.646;23.368;2022-07-29T01:24:04;94689.88;;;20.81;75.42
39999;BME280;25696;42.646;23.368;2022-07-29T01:26:49;94687.56;;;20.68;75.53
39999;BME280;25696;42.646;23.368;2022-07-29T01:29:30;94681.03;;;20.74;75.24
39999;BME280;25696;42.646;23.368;2022-07-29T01:39:42;94676.41;;;20.75;75.68
39999;BME280;25696;42.646;23.368;2022-07-29T01:42:38;94670.16;;;20.43;76.45
39999;BME280;25696;42.646;23.368;2022-07-29T01:48:37;94666.94;;;19.92;78.62
39999;BME280;25696;42.646;23.368;2022-07-29T01:53:46;94668.22;;;20.12;78.53
39999;BME280;25696;42.646;23.368;2022-07-29T01:56:13;94671.69;;;20.29;78.35
39999;BME280;25696;42.646;23.368;2022-07-29T01:58:41;94676.69;;;20.10;77.43
39999;BME280;25696;42.646;23.368;2022-07-29T02:01:09;94667.47;;;19.89;79.27
39999;BME280;25696;42.646;23.368;2022-07-29T02:03:37;94661.09;;;19.79;81.32
39999;BME280;25696;42.646;23.368;2022-07-29T02:06:05;94644.50;;;19.85;80.43
39999;BME280;25696;42.646;23.368;2022-07-29T02:08:33;94652.34;;;19.50;83.38
39999;BME280;25696;42.646;23.368;2022-07-29T02:11:00;94653.66;;;19.74;82.18
39999;BME280;25696;42.646;23.368;2022-07-29T02:13:27;94657.38;;;19.63;82.84
39999;BME280;25696;42.646;23.368;2022-07-29T02:15:55;94646.50;;;19.68;82.70
39999;BME280;25696;42.646;23.368;2022-07-29T02:18:23;94650.28;;;19.62;83.16
39999;BME280;25696;42.646;23.368;2022-07-29T02:20:52;94646.66;;;19.83;82.63
39999;BME280;25696;42.646;23.368;2022-07-29T02:23:22;94653.19;;;19.82;82.31
39999;BME280;25696;42.646;23.368;2022-07-29T02:25:49;94637.66;;;19.56;82.68
39999;BME280;25696;42.646;23.368;2022-07-29T02:28:17;94646.41;;;19.58;83.24
39999;BME280;25696;42.646;23.368;2022-07-29T02:30:43;94654.03;;;19.56;82.96
39999;BME280;25696;42.646;23.368;2022-07-29T02:33:12;94656.66;;;19.46;83.14
39999;BME280;25696;42.646;23.368;2022-07-29T02:35:40;94654.28;;;19.33;84.34
39999;BME280;25696;42.646;23.368;2022-07-29T02:38:07;94642.13;;;18.97;85.98
39999;BME280;25696;42.646;23.368;2022-07-29T02:40:53;94640.34;;;19.08;85.50
39999;BME280;25696;42.646;23.368;2022-07-29T02:43:21;94631.72;;;18.94;86.06
39999;BME280;25696;42.646;23.368;2022-07-29T02:45:51;94625.44;;;18.94;86.16
39999;BME280;25696;42.646;23.368;2022-07-29T02:48:22;94614.59;;;18.77;86.79
39999;BME280;25696;42.646;23.368;2022-07-29T02:50:58;94623.66;;;18.83;86.86
39999;BME280;25696;42.646;23.368;2022-07-29T02:53:26;94620.56;;;18.58;88.16
39999;BME280;25696;42.646;23.368;2022-07-29T02:56:23;94635.94;;;18.64;88.42
39999;BME280;25696;42.646;23.368;2022-07-29T02:58:54;94628.63;;;18.86;87.25
39999;BME280;25696;42.646;23.368;2022-07-29T03:01:23;94629.63;;;18.80;86.96
39999;BME280;25696;42.646;23.368;2022-07-29T03:03:51;94621.31;;;18.70;87.27
39999;BME280;25696;42.646;23.368;2022-07-29T03:06:19;94635.22;;;18.90;86.21
39999;BME280;25696;42.646;23.368;2022-07-29T03:08:46;94633.41;;;18.79;87.14
39999;BME280;25696;42.646;23.368;2022-07-29T03:11:12;94635.53;;;18.72;87.99
39999;BME280;25696;42.646;23.368;2022-07-29T03:13:39;94620.34;;;18.42;90.23
39999;BME280;25696;42.646;23.368;2022-07-29T03:16:05;94631.84;;;18.61;89.56
39999;BME280;25696;42.646;23.368;2022-07-29T03:18:31;94627.00;;;18.47;90.65
39999;BME280;25696;42.646;23.368;2022-07-29T03:20:57;94641.78;;;18.51;91.28
39999;BME280;25696;42.646;23.368;2022-07-29T03:23:23;94639.44;;;18.42;92.08
39999;BME280;25696;42.646;23.368;2022-07-29T03:25:51;94637.13;;;18.18;94.20
39999;BME280;25696;42.646;23.368;2022-07-29T03:28:16;94635.19;;;18.13;95.12
39999;BME280;25696;42.646;23.368;2022-07-29T03:30:42;94625.28;;;18.07;95.05
39999;BME280;25696;42.646;23.368;2022-07-29T03:33:07;94650.59;;;18.24;94.82
39999;BME280;25696;42.646;23.368;2022-07-29T03:35:33;94642.09;;;18.37;94.00
39999;BME280;25696;42.646;23.368;2022-07-29T03:37:59;94630.19;;;18.43;93.08
39999;BME280;25696;42.646;23.368;2022-07-29T03:40:34;94642.56;;;18.51;92.50
39999;BME280;25696;42.646;23.368;2022-07-29T03:43:02;94631.34;;;18.48;92.75
39999;BME280;25696;42.646;23.368;2022-07-29T03:45:29;94656.94;;;18.63;92.29
39999;BME280;25696;42.646;23.368;2022-07-29T03:48:00;94650.53;;;18.53;92.57
39999;BME280;25696;42.646;23.368;2022-07-29T03:50:26;94638.88;;;18.79;90.96
39999;BME280;25696;42.646;23.368;2022-07-29T03:52:52;94617.84;;;18.58;90.30
39999;BME280;25696;42.646;23.368;2022-07-29T03:55:18;94652.88;;;18.66;90.99
39999;BME280;25696;42.646;23.368;2022-07-29T03:57:44;94658.75;;;18.58;91.57
39999;BME280;25696;42.646;23.368;2022-07-29T04:00:10;94652.47;;;18.74;89.71
39999;BME280;25696;42.646;23.368;2022-07-29T04:02:36;94643.97;;;18.92;88.35
39999;BME280;25696;42.646;23.368;2022-07-29T04:05:03;94651.13;;;18.98;87.25
39999;BME280;25696;42.646;23.368;2022-07-29T04:07:28;94660.03;;;19.10;86.90
39999;BME280;25696;42.646;23.368;2022-07-29T04:09:54;94644.00;;;18.97;87.09
39999;BME280;25696;42.646;23.368;2022-07-29T04:12:20;94659.44;;;19.08;85.89
39999;BME280;25696;42.646;23.368;2022-07-29T04:14:46;94663.19;;;19.23;85.29
39999;BME280;25696;42.646;23.368;2022-07-29T04:17:11;94652.59;;;19.27;85.30
39999;BME280;25696;42.646;23.368;2022-07-29T04:19:37;94652.66;;;19.10;85.50
39999;BME280;25696;42.646;23.368;2022-07-29T04:22:02;94657.78;;;18.85;87.49
39999;BME280;25696;42.646;23.368;2022-07-29T04:24:28;94657.53;;;18.87;87.37
39999;BME280;25696;42.646;23.368;2022-07-29T04:26:54;94650.03;;;18.99;87.24
39999;BME280;25696;42.646;23.368;2022-07-29T04:29:19;94647.56;;;18.97;86.80
39999;BME280;25696;42.646;23.368;2022-07-29T04:31:45;94658.00;;;19.00;86.55
39999;BME280;25696;42.646;23.368;2022-07-29T04:34:11;94645.22;;;19.06;86.03
39999;BME280;25696;42.646;23.368;2022-07-29T04:36:36;94651.34;;;19.13;85.93
39999;BME280;25696;42.646;23.368;2022-07-29T04:39:02;94660.47;;;19.45;84.87
39999;BME280;25696;42.646;23.368;2022-07-29T04:41:28;94665.09;;;19.45;83.87
39999;BME280;25696;42.646;23.368;2022-07-29T04:43:54;94670.69;;;19.81;82.71
39999;BME280;25696;42.646;23.368;2022-07-29T04:46:20;94658.34;;;20.05;81.44
39999;BME280;25696;42.646;23.368;2022-07-29T04:48:46;94653.75;;;20.43;79.01
39999;BME280;25696;42.646;23.368;2022-07-29T04:51:13;94667.94;;;20.76;78.36
39999;BME280;25696;42.646;23.368;2022-07-29T04:53:39;94662.59;;;21.63;75.50
39999;BME280;25696;42.646;23.368;2022-07-29T04:56:05;94662.16;;;22.77;70.12
39999;BME280;25696;42.646;23.368;2022-07-29T04:58:30;94666.47;;;23.18;67.74
39999;BME280;25696;42.646;23.368;2022-07-29T05:00:56;94673.56;;;23.30;66.93
39999;BME280;25696;42.646;23.368;2022-07-29T05:03:21;94679.00;;;23.55;66.13
39999;BME280;25696;42.646;23.368;2022-07-29T05:05:47;94676.00;;;24.44;62.94
39999;BME280;25696;42.646;23.368;2022-07-29T05:08:12;94674.34;;;24.43;61.97
39999;BME280;25696;42.646;23.368;2022-07-29T05:10:38;94678.41;;;25.13;60.23
39999;BME280;25696;42.646;23.368;2022-07-29T05:13:05;94664.25;;;24.96;60.74
39999;BME280;25696;42.646;23.368;2022-07-29T05:15:31;94671.13;;;25.93;57.71
39999;BME280;25696;42.646;23.368;2022-07-29T05:17:57;94678.31;;;25.70;57.93
39999;BME280;25696;42.646;23.368;2022-07-29T05:20:22;94682.38;;;26.71;56.24
39999;BME280;25696;42.646;23.368;2022-07-29T05:22:54;94669.69;;;27.61;52.63
39999;BME280;25696;42.646;23.368;2022-07-29T05:25:19;94681.38;;;28.13;50.30
39999;BME280;25696;42.646;23.368;2022-07-29T05:27:45;94688.53;;;27.86;51.07
39999;BME280;25696;42.646;23.368;2022-07-29T05:30:10;94680.25;;;28.49;49.47
39999;BME280;25696;42.646;23.368;2022-07-29T05:32:36;94686.31;;;27.48;51.68
39999;BME280;25696;42.646;23.368;2022-07-29T05:35:01;94688.28;;;27.15;52.63
39999;BME280;25696;42.646;23.368;2022-07-29T05:37:27;94669.97;;;26.87;53.39
39999;BME280;25696;42.646;23.368;2022-07-29T05:39:52;94677.00;;;27.12;53.35
39999;BME280;25696;42.646;23.368;2022-07-29T05:42:18;94678.13;;;28.33;50.11
39999;BME280;25696;42.646;23.368;2022-07-29T05:44:43;94674.00;;;29.63;46.47
39999;BME280;25696;42.646;23.368;2022-07-29T05:47:08;94679.81;;;31.09;43.04
39999;BME280;25696;42.646;23.368;2022-07-29T05:49:34;94672.16;;;31.69;41.04
39999;BME280;25696;42.646;23.368;2022-07-29T05:51:59;94688.94;;;32.57;39.18
39999;BME280;25696;42.646;23.368;2022-07-29T05:54:25;94692.00;;;32.34;38.57
39999;BME280;25696;42.646;23.368;2022-07-29T05:56:50;94691.59;;;32.74;37.87
39999;BME280;25696;42.646;23.368;2022-07-29T05:59:16;94688.94;;;32.27;38.07
39999;BME280;25696;42.646;23.368;2022-07-29T06:01:41;94695.94;;;33.04;37.35
39999;BME280;25696;42.646;23.368;2022-07-29T06:04:07;94702.00;;;32.35;37.44
39999;BME280;25696;42.646;23.368;2022-07-29T06:06:33;94691.84;;;32.31;38.33
39999;BME280;25696;42.646;23.368;2022-07-29T06:09:00;94691.97;;;31.67;39.17
39999;BME280;25696;42.646;23.368;2022-07-29T06:11:25;94696.94;;;32.79;38.13
39999;BME280;25696;42.646;23.368;2022-07-29T06:13:51;94696.28;;;31.48;39.82
39999;BME280;25696;42.646;23.368;2022-07-29T06:16:16;94692.75;;;30.87;41.38
39999;BME280;25696;42.646;23.368;2022-07-29T06:18:42;94694.75;;;31.67;40.06
39999;BME280;25696;42.646;23.368;2022-07-29T06:21:08;94698.28;;;31.94;39.16
39999;BME280;25696;42.646;23.368;2022-07-29T06:23:36;94703.06;;;32.52;38.46
39999;BME280;25696;42.646;23.368;2022-07-29T06:26:02;94694.81;;;32.05;38.59
39999;BME280;25696;42.646;23.368;2022-07-29T06:28:27;94699.47;;;32.51;38.83
39999;BME280;25696;42.646;23.368;2022-07-29T06:30:53;94699.56;;;30.30;43.23
39999;BME280;25696;42.646;23.368;2022-07-29T06:33:18;94698.91;;;29.77;44.08
39999;BME280;25696;42.646;23.368;2022-07-29T06:35:44;94696.53;;;29.62;44.22
39999;BME280;25696;42.646;23.368;2022-07-29T06:38:10;94685.25;;;30.62;43.52
39999;BME280;25696;42.646;23.368;2022-07-29T06:40:44;94685.78;;;30.08;44.50
39999;BME280;25696;42.646;23.368;2022-07-29T06:43:34;94690.44;;;28.76;48.46
39999;BME280;25696;42.646;23.368;2022-07-29T06:46:03;94677.91;;;27.66;50.22
39999;BME280;25696;42.646;23.368;2022-07-29T06:48:29;94683.78;;;27.19;51.97
39999;BME280;25696;42.646;23.368;2022-07-29T06:50:55;94686.91;;;27.58;51.30
39999;BME280;25696;42.646;23.368;2022-07-29T06:53:20;94688.94;;;27.39;51.73
39999;BME280;25696;42.646;23.368;2022-07-29T06:55:46;94686.16;;;26.93;53.53
39999;BME280;25696;42.646;23.368;2022-07-29T06:58:11;94694.31;;;28.04;51.26
39999;BME280;25696;42.646;23.368;2022-07-29T07:00:37;94688.88;;;28.48;48.25
39999;BME280;25696;42.646;23.368;2022-07-29T07:03:02;94692.63;;;28.66;48.30
39999;BME280;25696;42.646;23.368;2022-07-29T07:05:28;94685.19;;;28.97;47.05
39999;BME280;25696;42.646;23.368;2022-07-29T07:07:53;94682.44;;;28.75;48.33
39999;BME280;25696;42.646;23.368;2022-07-29T07:10:19;94679.41;;;28.85;48.25
39999;BME280;25696;42.646;23.368;2022-07-29T07:12:44;94675.38;;;28.91;46.85
39999;BME280;25696;42.646;23.368;2022-07-29T07:15:10;94677.56;;;29.24;46.34
39999;BME280;25696;42.646;23.368;2022-07-29T07:17:35;94683.63;;;27.83;47.89
39999;BME280;25696;42.646;23.368;2022-07-29T07:20:04;94675.34;;;27.83;49.15
39999;BME280;25696;42.646;23.368;2022-07-29T07:22:30;94682.69;;;28.51;46.87
39999;BME280;25696;42.646;23.368;2022-07-29T07:24:55;94678.59;;;28.62;46.89
39999;BME280;25696;42.646;23.368;2022-07-29T07:27:21;94676.59;;;29.60;44.59
39999;BME280;25696;42.646;23.368;2022-07-29T07:29:46;94672.53;;;28.82;46.07
39999;BME280;25696;42.646;23.368;2022-07-29T07:32:12;94666.41;;;29.47;44.33
39999;BME280;25696;42.646;23.368;2022-07-29T07:34:38;94660.66;;;28.46;46.69
39999;BME280;25696;42.646;23.368;2022-07-29T07:37:04;94672.78;;;27.73;48.51
39999;BME280;25696;42.646;23.368;2022-07-29T07:39:29;94667.06;;;27.11;51.03
39999;BME280;25696;42.646;23.368;2022-07-29T07:41:55;94662.28;;;27.30;49.70
39999;BME280;25696;42.646;23.368;2022-07-29T07:44:20;94658.59;;;28.16;48.01
39999;BME280;25696;42.646;23.368;2022-07-29T07:46:46;94660.81;;;28.85;45.64
39999;BME280;25696;42.646;23.368;2022-07-29T07:49:11;94672.88;;;29.11;44.71
39999;BME280;25696;42.646;23.368;2022-07-29T07:51:37;94670.00;;;28.72;45.82
39999;BME280;25696;42.646;23.368;2022-07-29T07:54:03;94672.38;;;29.09;44.87
39999;BME280;25696;42.646;23.368;2022-07-29T07:56:29;94667.00;;;28.60;44.47
39999;BME280;25696;42.646;23.368;2022-07-29T07:58:54;94673.75;;;28.90;44.81
39999;BME280;25696;42.646;23.368;2022-07-29T08:01:20;94671.78;;;29.74;42.89
39999;BME280;25696;42.646;23.368;2022-07-29T08:03:48;94666.13;;;29.87;42.44
39999;BME280;25696;42.646;23.368;2022-07-29T08:06:14;94661.03;;;29.81;42.14
39999;BME280;25696;42.646;23.368;2022-07-29T08:08:40;94664.69;;;30.07;41.54
39999;BME280;25696;42.646;23.368;2022-07-29T08:11:05;94659.59;;;29.53;41.85
39999;BME280;25696;42.646;23.368;2022-07-29T08:13:31;94662.13;;;28.30;44.59
39999;BME280;25696;42.646;23.368;2022-07-29T08:15:58;94662.59;;;28.81;43.77
39999;BME280;25696;42.646;23.368;2022-07-29T08:18:27;94664.97;;;29.18;43.09
39999;BME280;25696;42.646;23.368;2022-07-29T08:20:53;94669.91;;;30.08;41.89
39999;BME280;25696;42.646;23.368;2022-07-29T08:23:19;94657.03;;;30.12;41.06
39999;BME280;25696;42.646;23.368;2022-07-29T08:25:45;94658.00;;;30.25;40.37
39999;BME280;25696;42.646;23.368;2022-07-29T08:28:11;94656.13;;;30.77;39.21
39999;BME280;25696;42.646;23.368;2022-07-29T08:30:36;94645.97;;;30.89;38.98
39999;BME280;25696;42.646;23.368;2022-07-29T08:33:02;94653.56;;;31.35;37.76
39999;BME280;25696;42.646;23.368;2022-07-29T08:35:28;94644.19;;;30.42;38.49
39999;BME280;25696;42.646;23.368;2022-07-29T08:37:54;94650.75;;;29.81;40.11
39999;BME280;25696;42.646;23.368;2022-07-29T08:40:20;94648.31;;;29.88;39.88
39999;BME280;25696;42.646;23.368;2022-07-29T08:42:46;94647.84;;;29.95;39.17
39999;BME280;25696;42.646;23.368;2022-07-29T08:45:11;94649.44;;;29.79;39.42
39999;BME280;25696;42.646;23.368;2022-07-29T08:47:38;94653.59;;;30.07;38.49
39999;BME280;25696;42.646;23.368;2022-07-29T08:50:06;94646.47;;;30.57;37.09
39999;BME280;25696;42.646;23.368;2022-07-29T08:52:36;94646.81;;;30.90;36.81
39999;BME280;25696;42.646;23.368;2022-07-29T08:55:03;94643.66;;;31.00;37.24
39999;BME280;25696;42.646;23.368;2022-07-29T08:57:29;94646.53;;;31.84;35.86
39999;BME280;25696;42.646;23.368;2022-07-29T09:00:00;94634.34;;;32.56;34.09
39999;BME280;25696;42.646;23.368;2022-07-29T09:02:28;94645.91;;;33.19;32.95
39999;BME280;25696;42.646;23.368;2022-07-29T09:04:56;94634.03;;;32.90;33.69
39999;BME280;25696;42.646;23.368;2022-07-29T09:07:24;94641.66;;;32.60;33.35
39999;BME280;25696;42.646;23.368;2022-07-29T09:09:50;94642.69;;;32.06;34.01
39999;BME280;25696;42.646;23.368;2022-07-29T09:12:16;94644.84;;;32.71;33.34
39999;BME280;25696;42.646;23.368;2022-07-29T09:14:41;94641.56;;;32.27;33.69
39999;BME280;25696;42.646;23.368;2022-07-29T09:17:07;94630.78;;;30.96;36.20
39999;BME280;25696;42.646;23.368;2022-07-29T09:19:34;94630.06;;;31.16;35.94
39999;BME280;25696;42.646;23.368;2022-07-29T09:22:02;94646.00;;;30.64;36.78
39999;BME280;25696;42.646;23.368;2022-07-29T09:24:44;94645.16;;;30.80;37.19
39999;BME280;25696;42.646;23.368;2022-07-29T09:27:23;94638.84;;;31.35;35.51
39999;BME280;25696;42.646;23.368;2022-07-29T09:30:01;94633.72;;;30.90;36.63
39999;BME280;25696;42.646;23.368;2022-07-29T09:32:27;94634.94;;;29.99;37.95
39999;BME280;25696;42.646;23.368;2022-07-29T09:35:18;94626.88;;;30.37;37.80
39999;BME280;25696;42.646;23.368;2022-07-29T09:37:44;94625.19;;;32.26;35.04
39999;BME280;25696;42.646;23.368;2022-07-29T09:40:15;94629.00;;;33.49;33.07
39999;BME280;25696;42.646;23.368;2022-07-29T09:42:41;94638.59;;;34.96;31.32
39999;BME280;25696;42.646;23.368;2022-07-29T09:45:07;94627.53;;;35.27;30.72
39999;BME280;25696;42.646;23.368;2022-07-29T09:47:47;94618.66;;;36.85;28.17
39999;BME280;25696;42.646;23.368;2022-07-29T09:50:15;94618.19;;;37.37;27.48
39999;BME280;25696;42.646;23.368;2022-07-29T09:52:46;94614.09;;;35.05;30.71
39999;BME280;25696;42.646;23.368;2022-07-29T09:55:12;94609.50;;;33.97;32.34
39999;BME280;25696;42.646;23.368;2022-07-29T09:57:38;94605.56;;;33.74;32.72
39999;BME280;25696;42.646;23.368;2022-07-29T10:00:12;94601.03;;;35.68;30.24
39999;BME280;25696;42.646;23.368;2022-07-29T10:02:39;94610.81;;;37.93;27.17
39999;BME280;25696;42.646;23.368;2022-07-29T10:05:16;94609.56;;;37.30;27.70
39999;BME280;25696;42.646;23.368;2022-07-29T10:07:51;94603.88;;;37.87;26.28
39999;BME280;25696;42.646;23.368;2022-07-29T10:10:24;94601.72;;;39.74;24.53
39999;BME280;25696;42.646;23.368;2022-07-29T10:12:56;94607.50;;;40.36;23.56
39999;BME280;25696;42.646;23.368;2022-07-29T10:15:26;94588.13;;;36.99;27.56
39999;BME280;25696;42.646;23.368;2022-07-29T10:17:53;94582.50;;;34.93;30.84
39999;BME280;25696;42.646;23.368;2022-07-29T10:20:20;94582.28;;;33.70;32.45
39999;BME280;25696;42.646;23.368;2022-07-29T10:22:47;94585.03;;;31.31;36.22
39999;BME280;25696;42.646;23.368;2022-07-29T10:25:14;94579.13;;;31.70;35.85
39999;BME280;25696;42.646;23.368;2022-07-29T10:27:39;94571.84;;;33.22;33.54
39999;BME280;25696;42.646;23.368;2022-07-29T10:30:06;94575.06;;;33.81;33.41
39999;BME280;25696;42.646;23.368;2022-07-29T10:36:11;94563.88;;;32.05;35.00
39999;BME280;25696;42.646;23.368;2022-07-29T10:43:58;94559.25;;;32.09;34.87
39999;BME280;25696;42.646;23.368;2022-07-29T10:46:25;94553.03;;;32.04;33.76
39999;BME280;25696;42.646;23.368;2022-07-29T10:54:42;94547.81;;;31.35;35.48
39999;BME280;25696;42.646;23.368;2022-07-29T11:05:18;94534.59;;;31.41;34.50
39999;BME280;25696;42.646;23.368;2022-07-29T11:08:17;94538.94;;;31.80;34.33
39999;BME280;25696;42.646;23.368;2022-07-29T11:10:45;94539.47;;;31.73;35.02
39999;BME280;25696;42.646;23.368;2022-07-29T11:13:10;94537.06;;;31.92;34.79
39999;BME280;25696;42.646;23.368;2022-07-29T11:15:58;94536.34;;;32.24;34.31
39999;BME280;25696;42.646;23.368;2022-07-29T11:18:23;94531.63;;;32.16;34.38
39999;BME280;25696;42.646;23.368;2022-07-29T11:20:50;94536.66;;;32.23;34.76
39999;BME280;25696;42.646;23.368;2022-07-29T11:23:30;94531.09;;;32.43;33.62
39999;BME280;25696;42.646;23.368;2022-07-29T11:29:03;94508.38;;;31.42;34.59
39999;BME280;25696;42.646;23.368;2022-07-29T11:31:42;94519.66;;;31.75;34.45
39999;BME280;25696;42.646;23.368;2022-07-29T11:39:33;94512.78;;;31.72;34.11
39999;BME280;25696;42.646;23.368;2022-07-29T11:50:14;94513.72;;;32.46;32.55
39999;BME280;25696;42.646;23.368;2022-07-29T11:52:50;94509.81;;;32.18;32.67
39999;BME280;25696;42.646;23.368;2022-07-29T11:55:18;94507.59;;;32.32;32.56
39999;BME280;25696;42.646;23.368;2022-07-29T11:57:57;94504.13;;;32.15;32.51
39999;BME280;25696;42.646;23.368;2022-07-29T12:00:31;94505.88;;;32.40;32.04
39999;BME280;25696;42.646;23.368;2022-07-29T12:02:59;94501.41;;;32.47;32.04
39999;BME280;25696;42.646;23.368;2022-07-29T12:05:38;94502.44;;;32.88;32.18
39999;BME280;25696;42.646;23.368;2022-07-29T12:08:16;94501.72;;;32.79;31.76
39999;BME280;25696;42.646;23.368;2022-07-29T12:10:44;94513.50;;;32.52;31.44
39999;BME280;25696;42.646;23.368;2022-07-29T12:13:12;94497.59;;;32.85;32.04
39999;BME280;25696;42.646;23.368;2022-07-29T12:15:38;94498.47;;;32.77;31.67
39999;BME280;25696;42.646;23.368;2022-07-29T12:18:11;94497.63;;;32.43;32.19
39999;BME280;25696;42.646;23.368;2022-07-29T12:20:37;94503.78;;;32.37;31.67
39999;BME280;25696;42.646;23.368;2022-07-29T12:23:07;94504.72;;;32.41;32.00
39999;BME280;25696;42.646;23.368;2022-07-29T12:25:34;94499.06;;;32.70;31.37
39999;BME280;25696;42.646;23.368;2022-07-29T12:28:06;94496.16;;;32.46;31.61
39999;BME280;25696;42.646;23.368;2022-07-29T12:30:40;94497.81;;;32.26;31.78
39999;BME280;25696;42.646;23.368;2022-07-29T12:33:14;94493.47;;;31.96;31.86
39999;BME280;25696;42.646;23.368;2022-07-29T12:35:40;94491.53;;;32.29;31.98
39999;BME280;25696;42.646;23.368;2022-07-29T12:38:06;94493.75;;;32.24;32.10
39999;BME280;25696;42.646;23.368;2022-07-29T12:40:34;94478.91;;;32.65;31.98
39999;BME280;25696;42.646;23.368;2022-07-29T12:43:14;94487.78;;;32.79;31.74
39999;BME280;25696;42.646;23.368;2022-07-29T12:45:44;94490.16;;;32.89;31.26
39999;BME280;25696;42.646;23.368;2022-07-29T12:48:10;94468.09;;;33.08;30.77
39999;BME280;25696;42.646;23.368;2022-07-29T12:50:50;94481.16;;;33.40;31.18
39999;BME280;25696;42.646;23.368;2022-07-29T12:53:16;94480.69;;;33.62;30.44
39999;BME280;25696;42.646;23.368;2022-07-29T12:55:46;94471.81;;;33.72;30.50
39999;BME280;25696;42.646;23.368;2022-07-29T13:01:04;94480.00;;;33.65;30.15
39999;BME280;25696;42.646;23.368;2022-07-29T13:09:15;94471.00;;;32.34;31.91
39999;BME280;25696;42.646;23.368;2022-07-29T13:11:48;94467.38;;;32.54;31.59
39999;BME280;25696;42.646;23.368;2022-07-29T13:14:30;94458.97;;;32.75;31.35
39999;BME280;25696;42.646;23.368;2022-07-29T13:17:10;94440.50;;;32.70;31.57
39999;BME280;25696;42.646;23.368;2022-07-29T13:19:37;94457.09;;;32.79;31.92
39999;BME280;25696;42.646;23.368;2022-07-29T13:22:03;94438.13;;;33.17;31.55
39999;BME280;25696;42.646;23.368;2022-07-29T13:24:29;94441.38;;;33.07;31.21
39999;BME280;25696;42.646;23.368;2022-07-29T13:26:55;94442.25;;;32.42;31.85
39999;BME280;25696;42.646;23.368;2022-07-29T13:29:20;94444.59;;;32.19;32.64
39999;BME280;25696;42.646;23.368;2022-07-29T13:31:46;94443.25;;;32.37;31.83
39999;BME280;25696;42.646;23.368;2022-07-29T13:34:11;94446.88;;;32.05;32.13
39999;BME280;25696;42.646;23.368;2022-07-29T13:36:37;94449.91;;;32.12;32.30
39999;BME280;25696;42.646;23.368;2022-07-29T13:39:03;94448.28;;;32.11;31.80
39999;BME280;25696;42.646;23.368;2022-07-29T13:41:28;94435.25;;;32.03;31.85
39999;BME280;25696;42.646;23.368;2022-07-29T13:43:54;94431.72;;;32.27;31.38
39999;BME280;25696;42.646;23.368;2022-07-29T13:46:20;94413.00;;;32.15;31.71
39999;BME280;25696;42.646;23.368;2022-07-29T13:48:45;94424.06;;;32.24;31.37
39999;BME280;25696;42.646;23.368;2022-07-29T13:51:11;94421.44;;;32.07;31.71
39999;BME280;25696;42.646;23.368;2022-07-29T13:53:37;94433.47;;;32.19;32.04
39999;BME280;25696;42.646;23.368;2022-07-29T13:56:03;94441.13;;;31.60;32.66
39999;BME280;25696;42.646;23.368;2022-07-29T13:58:33;94430.69;;;31.57;32.41
39999;BME280;25696;42.646;23.368;2022-07-29T14:00:59;94428.94;;;31.94;32.69
39999;BME280;25696;42.646;23.368;2022-07-29T14:03:25;94430.19;;;32.17;32.18